Airfield :







YOU CAN JOIN US ON...

 
LOGIN :

Register | Disclaimer

   EN    FR    IT 

 









Legend :    VFR   Marginal VFR   IFR   Intensive IFR   Very Intensive IFR
Visi :
Ceiling :
>= 8 km
>= 3000ft
5 to 8 km
1000 to 3000 ft
1500m to 5 km
500 to 1000 ft
800 to 1500m
200 to 500 ft
< 800m
< 200 ft
Symbols :   Thunderstorms  Fog  Heavy snow  Heavy precipitations  Wind > 20 kt






- Airport Elevation : 240 ft
- IATA code : LRM


MDLR - Casa de Campo Int.

EXPIRED METARs :
  • 230300Z 00000KT 9999 FEW016 26/25 Q1017

TAF TAF MDLR
Valid from the 23 at 06:00 until the 24 at 06:00 UTC


230400Z 2306/2406 00000KT 9999 FEW018CB SCT020 SCT070
PROB40 2306/2312 5000 TSRA FEW016CB BKN018 BKN070
BECMG 2314/2316 09008KT
MDCS FIR / North America



MET'MAP, your aeronautical weather chart ! - Copyright ORBIFLY December 2007 - Disclaimer

ORBIFLY MET'MAP TEAM :

Programming & Development : Alexandra Zaïnal
Original concept : Baudouin d'Aumeries
Technical & hardware support : Manuel Goepfert
Assistance : Marc-Olivier Méhu




SOURCES & CREDITS :

   NOAA